• Join FlightAware (Why Join?)
  • Login
  • US Flag GB Flag 
12:29 EDT


 

Airport Tracker/Info


-or-


 

Live Flight TrackerFlight Track Log ✈ DAL268 ✈ 14-May-2013 ✈ KJFK - LLBG / TLV

Flight Track Log - Related Links

Times and Time Zones

All times are in EDT time to prevent confusion due to time zone crossing. See the DAL268 flight status page for this flight to view local times or setup timezone preferences in your user account.

Time Position Orientation Groundspeed Altitude Reporting Facility
EDT Latitude Longitude Course Direction KTS MPH feet Rate Location/Type
23:56 40.6300 -73.7770 123° Southeast 183 211 200  Level FlightAware
23:56 40.6190 -73.7520 120° Southeast 188 216 900 1,380 Climbing FlightAware
23:57 40.6100 -73.7200 110° East 211 243 1,500 1,080 Climbing FlightAware
23:57 40.6070 -73.6860 97° East 235 270 1,900 900 Climbing FlightAware
23:58 40.6180 -73.6170 78° East 273 314 2,600 1,260 Climbing FlightAware
23:58 40.6390 -73.5850 49° Northeast 288 331 3,400 2,280 Climbing FlightAware
23:59 40.6660 -73.5450 48° Northeast 295 339 4,700 2,580 Climbing FlightAware
23:59 40.6890 -73.5130 47° Northeast 299 344 5,800 2,700 Climbing FlightAware
00:00 40.7230 -73.4790 37° Northeast 302 348 7,200 3,060 Climbing FlightAware
00:00 40.7620 -73.4550 25° Northeast 295 339 8,900 2,820 Climbing FlightAware
00:01 40.7930 -73.4400 20° North 301 346 9,800 1,920 Climbing FlightAware
00:01 40.8550 -73.4090 21° North 326 375 11,200 1,680 Climbing FlightAware
00:02 40.9120 -73.3810 20° North 353 406 12,200 1,380 Climbing FlightAware
00:03 40.9870 -73.3430 21° North 387 445 13,200 1,740 Climbing FlightAware
00:03 41.0520 -73.3080 22° Northeast 395 455 14,700 2,220 Climbing FlightAware
00:04 41.1240 -73.2710 21° North 401 461 16,200 2,100 Climbing FlightAware
00:05 41.2000 -73.2320 21° North 407 468 17,700 2,100 Climbing FlightAware
00:05 41.2710 -73.1960 21° North 410 472 19,200 2,220 Climbing FlightAware
00:06 41.3520 -73.1530 22° Northeast 412 474 20,900 2,220 Climbing FlightAware
00:06 41.3688 -73.1403 30° Northeast 425 489 21,200 1,620 Climbing FlightAware ADS-B
00:07 41.4186 -73.0548 52° Northeast 455 524 22,200 1,320 Climbing FlightAware ADS-B
00:07 41.4433 -73.0040 57° Northeast 452 520 22,600 1,320 Climbing FlightAware ADS-B
00:08 41.5003 -72.9284 45° Northeast 442 509 23,600 120 Climbing FlightAware ADS-B
00:09 41.5330 -72.8700 53° Northeast 448 516 22,800 -600 Descending FlightAware
00:09 41.5920 -72.7830 48° Northeast 448 516 22,800  Level FlightAware
00:10 41.6390 -72.7130 48° Northeast 448 516 22,800 2,700 Level FlightAware
00:10 41.6410 -72.7930 272° West 26,800 4,080 Climbing FlightAware
00:11 41.8350 -72.6090 35° Northeast 445 512 28,300 1,500 Climbing FlightAware
00:12 41.9160 -72.5310 36° Northeast 437 503 29,700 1,560 Climbing FlightAware
00:13 42.0140 -72.4380 35° Northeast 431 496 31,100 840 Climbing FlightAware
00:14 42.0810 -72.3750 35° Northeast 437 503 31,100  Level FlightAware
00:15 42.1460 -72.3120 36° Northeast 439 505 31,100  Level FlightAware
00:15 42.2200 -72.2390 36° Northeast 445 512 31,100  Level FlightAware
00:16 42.2850 -72.1720 37° Northeast 451 519 31,100  Level FlightAware
00:17 42.3600 -72.0930 38° Northeast 455 524 31,100  Level FlightAware
00:17 42.4270 -72.0230 38° Northeast 459 528 31,100  Level FlightAware
00:18 42.4940 -71.9520 38° Northeast 464 534 31,100  Level FlightAware
00:19 42.5740 -71.8680 38° Northeast 468 539 31,100  Level FlightAware
00:19 42.6410 -71.7970 38° Northeast 473 544 31,100  Level FlightAware
00:20 42.7170 -71.7160 38° Northeast 474 545 31,100  Level FlightAware
00:21 42.7870 -71.6410 38° Northeast 475 547 31,100  Level FlightAware
00:22 42.8570 -71.5670 38° Northeast 475 547 31,100  Level FlightAware
00:22 42.9350 -71.4840 38° Northeast 471 542 31,100  Level FlightAware
00:23 43.0040 -71.4100 38° Northeast 465 535 31,100  Level FlightAware
00:24 43.0770 -71.3300 39° Northeast 465 535 31,100  Level FlightAware
00:24 43.1450 -71.2570 38° Northeast 464 534 31,100  Level FlightAware
00:25 43.2130 -71.1830 38° Northeast 462 532 31,100  Level FlightAware
00:26 43.2900 -71.1010 38° Northeast 460 529 31,100  Level FlightAware
00:26 43.3570 -71.0270 39° Northeast 457 526 31,100 -120 Level FlightAware
00:27 43.4230 -70.9540 39° Northeast 455 524 31,000  Descending FlightAware
00:28 43.4950 -70.8750 39° Northeast 453 521 31,100 60 Climbing FlightAware
00:29 43.5590 -70.8050 38° Northeast 451 519 31,100  Level FlightAware
00:29 43.6350 -70.7220 38° Northeast 453 521 31,100  Level FlightAware
00:30 43.7010 -70.6480 39° Northeast 456 525 31,100  Level FlightAware
00:31 43.7670 -70.5760 38° Northeast 458 527 31,100 -120 Level FlightAware
00:31 43.8390 -70.4950 39° Northeast 463 533 31,000  Descending FlightAware
00:32 43.9060 -70.4200 39° Northeast 469 540 31,100  Climbing FlightAware
00:33 43.9750 -70.3430 39° Northeast 475 547 31,000 -120 Descending FlightAware
00:33 44.0410 -70.2700 38° Northeast 481 554 31,000  Level FlightAware
00:34 44.1240 -70.1740 40° Northeast 482 555 31,000  Level FlightAware
00:35 44.1990 -70.0890 39° Northeast 484 557 31,000 60 Level FlightAware
00:35 44.2600 -70.0210 39° Northeast 485 558 31,100 60 Climbing FlightAware
00:36 44.3490 -69.9200 39° Northeast 485 558 31,100 -120 Level FlightAware
00:37 44.4050 -69.8560 39° Northeast 485 558 31,000 -120 Descending FlightAware
00:38 44.4770 -69.7740 39° Northeast 485 558 31,000  Level FlightAware
00:38 44.5370 -69.7060 39° Northeast 485 558 31,000 60 Level FlightAware
00:39 44.6370 -69.5880 40° Northeast 493 567 31,100 60 Climbing FlightAware
00:40 44.7100 -69.5040 39° Northeast 494 568 31,100  Level FlightAware
00:40 44.7880 -69.4140 39° Northeast 494 568 31,100  Level FlightAware
00:41 44.8590 -69.3320 39° Northeast 495 570 31,100  Level FlightAware
00:42 44.9360 -69.2410 40° Northeast 497 572 31,100  Level FlightAware
00:43 45.0070 -69.1580 40° Northeast 501 577 31,100  Level FlightAware
00:43 45.0880 -69.0610 40° Northeast 503 579 31,100  Level FlightAware
00:44 45.1600 -68.9760 40° Northeast 505 581 31,100  Level FlightAware
00:45 45.2310 -68.8910 40° Northeast 506 582 31,100  Level FlightAware
00:45 45.3130 -68.7950 39° Northeast 506 582 31,100 -120 Level FlightAware
00:46 45.3840 -68.7120 39° Northeast 506 582 31,000  Descending FlightAware
00:47 45.4660 -68.6130 40° Northeast 506 582 31,100 60 Climbing FlightAware
00:47 45.5350 -68.5290 40° Northeast 507 583 31,100  Level FlightAware
00:48 45.6060 -68.4420 41° Northeast 508 585 31,100  Level FlightAware
00:49 45.6840 -68.3480 40° Northeast 510 587 31,100  Level FlightAware
00:50 45.7570 -68.2580 41° Northeast 511 588 31,100  Level FlightAware
00:50 45.8540 -68.1400 40° Northeast 511 588 31,100  Level FlightAware
00:51 45.9060 -68.0760 41° Northeast 31,100  Level FlightAware
00:52 46.0610 -67.8860 40° Northeast 510 587 31,100 -60 Level FlightAware
00:53 46.1430 -67.7840 41° Northeast 512 589 31,000  Descending FlightAware
00:54 46.2520 -67.6500 40° Northeast 514 592 31,100 60 Climbing FlightAware
00:55 46.3140 -67.5740 40° Northeast 514 592 31,100  Level FlightAware
00:56 46.3760 -67.4990 40° Northeast 514 592 31,100  Level FlightAware
00:56 46.4380 -67.4240 40° Northeast 514 592 31,100  Level FlightAware
00:57 46.5150 -67.3290 40° Northeast 514 592 31,100  Level FlightAware
00:58 46.5770 -67.2540 40° Northeast 514 592 31,100  Level FlightAware
00:58 46.6390 -67.1780 40° Northeast 514 592 31,100  Level FlightAware
00:59 46.7010 -67.1020 40° Northeast 514 592 31,100  Level FlightAware
01:00 46.7630 -67.0270 40° Northeast 514 592 31,100  Level FlightAware
01:01 46.8400 -66.9320 40° Northeast 514 592 31,100  Level FlightAware
01:01 46.9020 -66.8560 40° Northeast 514 592 31,100  Level FlightAware
01:02 46.9640 -66.7790 40° Northeast 514 592 31,100  Level FlightAware
01:03 47.0260 -66.7030 40° Northeast 514 592 31,100  Level FlightAware
01:03 47.0880 -66.6270 40° Northeast 514 592 31,100 -120 Level FlightAware
01:04 47.3000 -66.2833 40° Northeast 520 598 31,000 -60 Descending Gander Center
01:05 47.4000 -66.1500 42° Northeast 520 598 31,000  Level Gander Center
01:06 47.5167 -65.9833 44° Northeast 520 598 31,000  Level Gander Center
01:07 47.6167 -65.8500 42° Northeast 520 598 31,000  Level Gander Center
01:08 47.7333 -65.7000 41° Northeast 530 610 31,000  Level Gander Center
01:09 47.8333 -65.5667 42° Northeast 520 598 31,100  Climbing Gander Center
01:10 47.9500 -65.4000 44° Northeast 530 610 31,000 -60 Descending Gander Center
01:11 48.0500 -65.2500 45° Northeast 520 598 31,000  Level Gander Center
01:12 48.1500 -65.1167 42° Northeast 520 598 31,000  Level Gander Center
01:13 48.2667 -64.9667 41° Northeast 520 598 31,000  Level Gander Center
01:14 48.3667 -64.8333 42° Northeast 520 598 31,100  Climbing Gander Center
01:15 48.4833 -64.6667 43° Northeast 520 598 31,000 -60 Descending Gander Center
01:16 48.5833 -64.5167 45° Northeast 520 598 31,000  Level Gander Center
01:17 48.6833 -64.3667 45° Northeast 520 598 31,000  Level Gander Center
01:18 48.8000 -64.2333 37° Northeast 520 598 31,000  Level Gander Center
01:19 48.9000 -64.0833 45° Northeast 520 598 31,000  Level Gander Center
01:20 49.0000 -63.9333 45° Northeast 520 598 31,000  Level Gander Center
01:21 49.1000 -63.7667 47° Northeast 530 610 31,000  Level Gander Center
01:22 49.2167 -63.6167 40° Northeast 530 610 31,000 120 Level Gander Center
01:23 49.3333 -63.4333 46° Northeast 530 610 31,300 660 Climbing Gander Center
01:24 49.4333 -63.2833 44° Northeast 530 610 32,400 840 Climbing Gander Center
01:25 49.5333 -63.1333 44° Northeast 530 610 33,000 300 Climbing Gander Center
01:26 49.6333 -62.9667 47° Northeast 540 621 33,000  Level Gander Center
01:27 49.7500 -62.8167 40° Northeast 540 621 33,000  Level Gander Center
01:28 49.8667 -62.6333 45° Northeast 550 633 33,100  Climbing Gander Center
01:29 49.9667 -62.4833 44° Northeast 540 621 33,000 -60 Descending Gander Center
01:30 50.0833 -62.3000 45° Northeast 550 633 33,000  Level Gander Center
01:31 50.1833 -62.1500 44° Northeast 560 644 33,000  Level Gander Center
01:32 50.3000 -61.9667 45° Northeast 550 633 33,000  Level Gander Center
01:33 50.4000 -61.7833 49° Northeast 550 633 33,000  Level Gander Center
01:34 50.5000 -61.6167 47° Northeast 560 644 33,000  Level Gander Center
01:35 50.6167 -61.4333 45° Northeast 570 656 33,000  Level Gander Center
01:36 50.7333 -61.2500 45° Northeast 570 656 33,000  Level Gander Center
01:37 50.8333 -61.0667 49° Northeast 570 656 33,000  Level Gander Center
01:38 50.9500 -60.9167 39° Northeast 570 656 33,000  Level Gander Center
01:39 51.0667 -60.7167 47° Northeast 570 656 33,000  Level Gander Center
01:40 51.1667 -60.5333 49° Northeast 570 656 33,000  Level Gander Center
01:41 51.2833 -60.3500 44° Northeast 580 667 33,000  Level Gander Center
01:42 51.4000 -60.1500 47° Northeast 580 667 33,000  Level Gander Center
01:43 51.5000 -59.9667 49° Northeast 570 656 33,000  Level Gander Center
01:44 51.6000 -59.7667 51° Northeast 570 656 33,000  Level Gander Center
01:44 51.6333 -59.7000 51° Northeast 570 656 33,000  Level Gander Center
01:45 51.6667 -59.6167 57° Northeast 570 656 33,000  Level Moncton Center
01:46 51.7833 -59.4167 47° Northeast 560 644 33,000  Level Moncton Center
01:47 51.8833 -59.2000 53° Northeast 560 644 33,000  Level Gander Center
01:48 52.0000 -58.9667 51° Northeast 560 644 33,000  Level Gander Center
01:48 52.0333 -58.9167 43° Northeast 560 644 33,000  Level Gander Center
01:49 52.1000 -58.8000 47° Northeast 560 644 33,000  Level Gander Center
01:50 52.2000 -58.5833 53° Northeast 560 644 33,000  Level Gander Center
01:51 52.2833 -58.3833 56° Northeast 570 656 33,000  Level Gander Center
01:52 52.3833 -58.1833 51° Northeast 570 656 33,000  Level Gander Center
01:53 52.4833 -57.9833 51° Northeast 570 656 33,000  Level Gander Center
01:54 52.6000 -57.7500 50° Northeast 570 656 33,000  Level Gander Center
01:55 52.6833 -57.5500 55° Northeast 580 667 33,000  Level Gander Center
01:56 52.7833 -57.3500 50° Northeast 570 656 33,000  Level Gander Center
01:57 52.8667 -57.1500 55° Northeast 570 656 33,100  Climbing Gander Center
01:58 52.9833 -56.9167 50° Northeast 570 656 33,000 -60 Descending Gander Center
01:59 53.0833 -56.7167 50° Northeast 570 656 33,000  Level Gander Center
02:00 53.1667 -56.5167 55° Northeast 570 656 33,000  Level Gander Center
02:01 53.2667 -56.3000 52° Northeast 570 656 33,000  Level Gander Center
02:02 53.3500 -56.1000 55° Northeast 570 656 33,000  Level Gander Center
02:03 53.4667 -55.8667 50° Northeast 580 667 33,000  Level Gander Center
02:04 53.5500 -55.6500 57° Northeast 570 656 33,000  Level Gander Center
02:05 53.6333 -55.4167 59° Northeast 580 667 33,000  Level Gander Center
02:06 53.7333 -55.2000 52° Northeast 580 667 33,000  Level Gander Center
02:07 53.8333 -54.9833 52° Northeast 580 667 33,000  Level Gander Center
02:08 53.8667 -54.9667 67° East 558 642 33,000  Level ETMS Enhanced Traffic Management System
02:08 53.9000 -54.7500 64° Northeast 570 656 33,000  Level Gander Center
02:08 53.8667 -54.9667 67° East 558 642 33,000  Level ETMS Enhanced Traffic Management System
02:09 53.9667 -54.5167 67° East 560 644 33,000  Level Gander Center
02:10 54.0333 -54.2500 67° East 560 644 33,000  Level Gander Center
02:11 54.0667 -54.0333 75° East 570 656 33,000  Level Gander Center
02:12 54.1333 -53.8000 64° Northeast 570 656 33,000  Level Gander Center
02:13 54.1833 -53.5667 70° East 570 656 33,000  Level Gander Center
02:14 54.2500 -53.2833 68° East 570 656 33,000  Level Gander Center
02:15 54.3167 -53.0500 64° Northeast 570 656 33,000  Level Gander Center
02:16 54.3667 -52.7833 72° East 570 656 33,000  Level Gander Center
02:17 54.4333 -52.5333 65° Northeast 570 656 33,000  Level Gander Center
02:17 54.4500 -52.4167 76° East 570 656 33,000  Level Gander Center
02:18 54.5167 -52.1667 65° Northeast 570 656 33,000  Level Gander Center
02:19 54.5500 -52.0167 69° East 570 656 33,000  Level Gander Center
02:20 54.6000 -51.7667 71° East 570 656 33,000  Level Gander Center
02:20 54.6333 -51.6500 64° Northeast 570 656 33,000  Level Gander Center
02:21 54.6667 -51.5000 69° East 570 656 33,000  Level Gander Center
02:22 54.7333 -51.2500 65° Northeast 570 656 33,000  Level Gander Center
02:24 54.8120 -50.8891 69° East  Level FlightAware Approximate
02:29 55.0000 -50.0000 66° East 577 664 33,000  Level ETMS Enhanced Traffic Management System
02:31 55.1854 -49.2307 67° East  Level FlightAware Approximate
02:32 55.2411 -48.9941 67° East  Level FlightAware Approximate
02:33 55.2963 -48.7568 68° East  Level FlightAware Approximate
02:34 55.3511 -48.5188 68° East  Level FlightAware Approximate
02:35 55.4998 -47.9275 68° East 577 664 33,000  Level FlightAware Transoceanic
02:36 55.5598 -47.6648 68° East 577 664 33,000  Level FlightAware Transoceanic
02:37 55.6192 -47.4013 68° East 577 664 33,000  Level FlightAware Transoceanic
02:38 55.6781 -47.1370 69° East 577 664 33,000  Level FlightAware Transoceanic
02:39 55.7364 -46.8719 69° East 577 664 33,000  Level FlightAware Transoceanic
02:40 55.7941 -46.6060 69° East 577 664 33,000  Level FlightAware Transoceanic
02:41 55.8512 -46.3393 69° East 577 664 33,000  Level FlightAware Transoceanic
02:42 55.9078 -46.0719 69° East 577 664 33,000  Level FlightAware Transoceanic
02:43 55.9637 -45.8037 70° East 577 664 33,000  Level FlightAware Transoceanic
02:44 56.0191 -45.5347 70° East 577 664 33,000  Level FlightAware Transoceanic
02:45 56.0740 -45.2649 70° East 577 664 33,000  Level FlightAware Transoceanic
02:46 56.1282 -44.9944 70° East 577 664 33,000  Level FlightAware Transoceanic
02:47 56.1818 -44.7231 71° East 577 664 33,000  Level FlightAware Transoceanic
02:48 56.2348 -44.4510 71° East 577 664 33,000  Level FlightAware Transoceanic
02:49 56.2873 -44.1782 71° East 577 664 33,000  Level FlightAware Transoceanic
02:50 56.3391 -43.9047 71° East 577 664 33,000  Level FlightAware Transoceanic
02:51 56.3903 -43.6304 71° East 577 664 33,000  Level FlightAware Transoceanic
02:52 56.4409 -43.3554 72° East 577 664 33,000  Level FlightAware Transoceanic
02:53 56.4909 -43.0796 72° East 577 664 33,000  Level FlightAware Transoceanic
02:54 56.5403 -42.8032 72° East 577 664 33,000  Level FlightAware Transoceanic
02:55 56.5891 -42.5260 72° East 577 664 33,000  Level FlightAware Transoceanic
02:56 56.6373 -42.2481 73° East 577 664 33,000  Level FlightAware Transoceanic
02:57 56.6848 -41.9695 73° East 577 664 33,000  Level FlightAware Transoceanic
02:58 56.7317 -41.6902 73° East 577 664 33,000  Level FlightAware Transoceanic
02:59 56.7780 -41.4102 73° East 577 664 33,000  Level FlightAware Transoceanic
03:00 56.8237 -41.1295 74° East 577 664 33,000  Level FlightAware Transoceanic
03:01 56.8687 -40.8481 74° East 577 664 33,000  Level FlightAware Transoceanic
03:02 56.9131 -40.5661 74° East 577 664 33,000  Level FlightAware Transoceanic
03:03 56.9569 -40.2834 74° East 577 664 33,000  Level FlightAware Transoceanic
03:04 56.9962 -40.0253 74° East  Level FlightAware Approximate
03:05 57.0350 -39.7667 74° East  Level FlightAware Approximate
03:05 57.0000 -40.0000 86° East 576 663 33,000  Level ETMS Enhanced Traffic Management System
03:06 57.0083 -39.7852 86° East  Level FlightAware Approximate
03:07 57.0182 -39.5176 86° East  Level FlightAware Approximate
03:08 57.0275 -39.2498 86° East  Level FlightAware Approximate
03:09 57.0362 -38.9819 86° East  Level FlightAware Approximate
03:10 57.0443 -38.7139 87° East  Level FlightAware Approximate
03:11 57.0652 -37.9446 88° East 576 663 33,000  Level FlightAware Transoceanic
03:12 57.0717 -37.6505 88° East 576 663 33,000  Level FlightAware Transoceanic
03:13 57.0776 -37.3562 88° East 576 663 33,000  Level FlightAware Transoceanic
03:14 57.0828 -37.0619 88° East 576 663 33,000  Level FlightAware Transoceanic
03:15 57.0873 -36.7675 89° East 576 663 33,000  Level FlightAware Transoceanic
03:16 57.0911 -36.4730 89° East 576 663 33,000  Level FlightAware Transoceanic
03:17 57.0942 -36.1785 89° East 576 663 33,000  Level FlightAware Transoceanic
03:18 57.0966 -35.8839 89° East 576 663 33,000  Level FlightAware Transoceanic
03:19 57.0983 -35.5893 90° East 576 663 33,000  Level FlightAware Transoceanic
03:20 57.0994 -35.2946 90° East 576 663 33,000  Level FlightAware Transoceanic
03:21 57.0997 -35.0000 90° East 576 663 33,000  Level FlightAware Transoceanic
03:22 57.0994 -34.7054 90° East 576 663 33,000  Level FlightAware Transoceanic
03:23 57.0983 -34.4107 90° East 576 663 33,000  Level FlightAware Transoceanic
03:24 57.0966 -34.1161 91° East 576 663 33,000  Level FlightAware Transoceanic
03:25 57.0942 -33.8215 91° East 576 663 33,000  Level FlightAware Transoceanic
03:26 57.0911 -33.5270 91° East 576 663 33,000  Level FlightAware Transoceanic
03:27 57.0873 -33.2325 91° East 576 663 33,000  Level FlightAware Transoceanic
03:28 57.0828 -32.9381 92° East 576 663 33,000  Level FlightAware Transoceanic
03:29 57.0776 -32.6438 92° East 576 663 33,000  Level FlightAware Transoceanic
03:30 57.0717 -32.3495 92° East 576 663 33,000  Level FlightAware Transoceanic
03:31 57.0652 -32.0554 92° East 576 663 33,000  Level FlightAware Transoceanic
03:32 57.0579 -31.7613 93° East 576 663 33,000  Level FlightAware Transoceanic
03:33 57.0500 -31.4674 93° East 576 663 33,000  Level FlightAware Transoceanic
03:34 57.0414 -31.1736 93° East 576 663 33,000  Level FlightAware Transoceanic
03:35 57.0321 -30.8800 93° East 576 663 33,000  Level FlightAware Transoceanic
03:36 57.0220 -30.5865 94° East 576 663 33,000  Level FlightAware Transoceanic
03:37 57.0114 -30.2932 94° East 576 663 33,000  Level FlightAware Transoceanic
03:38 57.0010 -30.0256 94° East  Level FlightAware Approximate
03:39 56.9901 -29.7583 94° East  Level FlightAware Approximate
03:40 56.9680 -29.7915 106° East  Level FlightAware Approximate
03:40 57.0000 -30.0000 105° East 577 664 33,000  Level ETMS Enhanced Traffic Management System
03:41 56.9279 -29.5340 106° East  Level FlightAware Approximate
03:42 56.8872 -29.2771 106° East  Level FlightAware Approximate
03:43 56.8461 -29.0207 106° East  Level FlightAware Approximate
03:44 56.8044 -28.7649 106° East  Level FlightAware Approximate
03:45 56.7623 -28.5101 107° East  Level FlightAware Approximate
03:46 56.6373 -27.7519 107° East 577 664 33,000  Level FlightAware Transoceanic
03:47 56.5891 -27.4740 108° East 577 664 33,000  Level FlightAware Transoceanic
03:48 56.5403 -27.1968 108° East 577 664 33,000  Level FlightAware Transoceanic
03:49 56.4909 -26.9204 108° East 577 664 33,000  Level FlightAware Transoceanic
03:50 56.4409 -26.6446 108° East 577 664 33,000  Level FlightAware Transoceanic
03:51 56.3903 -26.3696 109° East 577 664 33,000  Level FlightAware Transoceanic
03:52 56.3391 -26.0953 109° East 577 664 33,000  Level FlightAware Transoceanic
03:53 56.2873 -25.8218 109° East 577 664 33,000  Level FlightAware Transoceanic
03:54 56.2348 -25.5490 109° East 577 664 33,000  Level FlightAware Transoceanic
03:55 56.1818 -25.2769 109° East 577 664 33,000  Level FlightAware Transoceanic
03:56 56.1282 -25.0056 110° East 577 664 33,000  Level FlightAware Transoceanic
03:57 56.0740 -24.7351 110° East 577 664 33,000  Level FlightAware Transoceanic
03:58 56.0191 -24.4653 110° East 577 664 33,000  Level FlightAware Transoceanic
03:59 55.9637 -24.1963 110° East 577 664 33,000  Level FlightAware Transoceanic
04:00 55.9078 -23.9281 111° Southeast 577 664 33,000  Level FlightAware Transoceanic
04:01 55.8512 -23.6607 111° Southeast 577 664 33,000  Level FlightAware Transoceanic
04:02 55.7941 -23.3940 111° Southeast 577 664 33,000  Level FlightAware Transoceanic
04:03 55.7364 -23.1281 111° Southeast 577 664 33,000  Level FlightAware Transoceanic
04:04 55.6781 -22.8630 111° Southeast 577 664 33,000  Level FlightAware Transoceanic
04:05 55.6192 -22.5987 112° Southeast 577 664 33,000  Level FlightAware Transoceanic
04:06 55.5598 -22.3352 112° Southeast 577 664 33,000  Level FlightAware Transoceanic
04:07 55.4998 -22.0725 112° Southeast 577 664 33,000  Level FlightAware Transoceanic
04:08 55.4393 -21.8106 112° Southeast 577 664 33,000  Level FlightAware Transoceanic
04:09 55.3782 -21.5495 113° Southeast 577 664 33,000  Level FlightAware Transoceanic
04:10 55.3165 -21.2892 113° Southeast 577 664 33,000  Level FlightAware Transoceanic
04:11 55.2543 -21.0297 113° Southeast 577 664 33,000  Level FlightAware Transoceanic
04:12 55.1915 -20.7711 113° Southeast 577 664 33,000  Level FlightAware Transoceanic
04:13 55.1282 -20.5132 113° Southeast 577 664 33,000  Level FlightAware Transoceanic
04:14 55.0644 -20.2562 114° Southeast 577 664 33,000  Level FlightAware Transoceanic
04:15 55.0059 -20.0232 114° Southeast  Level FlightAware Approximate
04:16 54.9469 -19.7909 114° Southeast  Level FlightAware Approximate
04:17 54.9755 -19.8011 102° East  Level FlightAware Approximate
04:18 54.9445 -19.5530 102° East  Level FlightAware Approximate
04:19 54.9130 -19.3052 102° East  Level FlightAware Approximate
04:20 54.8810 -19.0579 103° East  Level FlightAware Approximate
04:21 54.8485 -18.8109 103° East  Level FlightAware Approximate
04:22 54.8155 -18.5644 103° East  Level FlightAware Approximate
04:23 54.7820 -18.3183 103° East  Level FlightAware Approximate
04:24 54.7480 -18.0725 103° East  Level FlightAware Approximate
04:25 54.7134 -17.8272 104° East  Level FlightAware Approximate
04:26 54.6784 -17.5823 104° East  Level FlightAware Approximate
04:27 54.6429 -17.3379 104° East  Level FlightAware Approximate
04:28 54.6070 -17.0938 104° East  Level FlightAware Approximate
04:29 54.5705 -16.8502 104° East  Level FlightAware Approximate
04:30 54.5335 -16.6070 105° East  Level FlightAware Approximate
04:31 54.4961 -16.3643 105° East  Level FlightAware Approximate
04:32 54.4581 -16.1220 105° East  Level FlightAware Approximate
04:33 54.4197 -15.8802 105° East  Level FlightAware Approximate
04:34 54.3808 -15.6388 105° East  Level FlightAware Approximate
04:35 54.3414 -15.3979 106° East  Level FlightAware Approximate
04:36 54.3016 -15.1575 106° East  Level FlightAware Approximate
04:37 54.2612 -14.9175 106° East  Level FlightAware Approximate
04:38 54.2204 -14.6780 106° East  Level FlightAware Approximate
04:39 54.1791 -14.4390 106° East  Level FlightAware Approximate
04:39 53.8710 -13.7480 106° East 551 634 33,100  Level FlightAware
04:39 53.8420 -13.5820 106° East 550 633 33,100  Level FlightAware
04:40 53.8100 -13.3970 106° East 545 627 33,100  Level FlightAware
04:41 53.7800 -13.2290 107° East 542 624 33,100 -120 Level FlightAware
04:41 53.7490 -13.0460 106° East 540 621 33,000  Descending FlightAware
04:42 53.7190 -12.8800 107° East 539 620 33,100  Climbing FlightAware
04:43 53.6860 -12.6910 106° East 539 620 33,000  Descending FlightAware
04:43 53.6580 -12.5380 107° East 538 619 33,100  Climbing FlightAware
04:45 53.5740 -12.0900 107° East 538 619 33,000 -60 Descending FlightAware
04:46 53.5430 -11.9230 107° East 538 619 33,000 60 Level FlightAware
04:47 53.5140 -11.7680 107° East 540 621 33,100 60 Climbing FlightAware
04:47 53.4800 -11.5920 108° East 541 623 33,100  Level FlightAware
04:48 53.4400 -11.3860 108° East 538 619 33,100  Level FlightAware
04:49 53.4060 -11.2130 108° East 533 613 33,100 -120 Level FlightAware
04:50 53.3700 -11.0260 108° East 527 606 33,000  Descending FlightAware
04:50 53.3430 -10.8920 109° East 524 603 33,100  Climbing FlightAware
04:51 53.3140 -10.7460 108° East 522 601 33,000  Descending FlightAware
04:52 53.2740 -10.5470 109° East 521 600 33,100  Climbing FlightAware
04:52 53.2480 -10.4210 109° East 521 600 33,000  Descending FlightAware
04:53 53.2180 -10.2760 109° East 519 597 33,100 60 Climbing FlightAware
04:54 53.1770 -10.0780 109° East 522 601 33,100 -120 Level FlightAware
04:55 53.1450 -9.9210 109° East 523 602 33,000  Descending FlightAware
04:55 53.1120 -9.7660 109° East 519 597 33,100 60 Climbing FlightAware
04:56 53.0780 -9.6060 109° East 520 598 33,100 -120 Level FlightAware
04:57 53.0480 -9.4630 109° East 524 603 33,000  Descending FlightAware
04:57 53.0070 -9.2730 110° East 524 603 33,100 -780 Climbing FlightAware
04:59 52.9460 -8.9925 110° East 510 587 31,500 -1,080 Descending FlightAware UK
04:59 52.9310 -8.9237 110° East 502 578 31,500 3,720 Level FlightAware UK
04:59 52.9320 -8.9300 110° East 521 600 33,000  Climbing FlightAware
04:59 52.9117 -8.8348 110° East 502 578 31,500 -2,520 Descending FlightAware UK
05:00 52.8967 -8.7671 110° East 502 578 31,500  Level FlightAware UK
05:00 52.8817 -8.6995 110° East 500 575 31,500 2,280 Level FlightAware UK
05:00 52.8690 -8.6460 110° East 520 598 33,000  Climbing FlightAware
05:01 52.8519 -8.5650 110° East 500 575 31,500 -2,760 Descending FlightAware UK
05:01 52.8369 -8.4980 110° East 500 575 31,500  Level FlightAware UK
05:01 52.8218 -8.4309 110° East 498 573 31,500 2,760 Level FlightAware UK
05:01 52.8150 -8.4030 110° East 523 602 33,000  Climbing FlightAware
05:02 52.7963 -8.3176 110° East 500 575 31,500 -2,700 Descending FlightAware UK
05:02 52.7813 -8.2499 110° East 498 573 31,500  Level FlightAware UK
05:02 52.7661 -8.1822 110° East 502 578 31,500  Level FlightAware UK
05:03 52.7509 -8.1145 110° East 500 575 31,500 2,700 Level FlightAware UK
05:03 52.7410 -8.0770 110° East 521 600 33,000  Climbing FlightAware
05:03 52.7249 -8.0022 110° East 502 578 31,500 -2,760 Descending FlightAware UK
05:03 52.7093 -7.9351 111° Southeast 504 580 31,500  Level FlightAware UK
05:04 52.6937 -7.8682 111° Southeast 504 580 31,500 3,300 Level FlightAware UK
05:04 52.6880 -7.8460 111° Southeast 524 603 33,000  Climbing FlightAware
05:04 52.6728 -7.7790 111° Southeast 504 580 31,500 -2,760 Descending FlightAware UK
05:04 52.6572 -7.7120 111° Southeast 506 582 31,500 3,840 Level FlightAware UK
05:04 52.6560 -7.7120 111° Southeast 523 602 33,100  Climbing FlightAware
05:05 52.6365 -7.6228 111° Southeast 498 573 31,500 -2,760 Descending FlightAware UK
05:05 52.6209 -7.5558 111° Southeast 506 582 31,500 3,420 Level FlightAware UK
05:05 52.6160 -7.5370 111° Southeast 526 605 33,100  Climbing FlightAware
05:06 52.5947 -7.4444 111° Southeast 504 580 31,500  Descending FlightAware UK
05:06 52.5800 -7.3850 111° Southeast 525 604 33,100  Climbing FlightAware
05:06 52.5629 -7.3108 111° Southeast 508 585 31,500 -2,880 Descending FlightAware UK
05:06 52.5470 -7.2440 111° Southeast 508 585 31,500 3,720 Level FlightAware UK
05:07 52.5440 -7.2330 111° Southeast 523 602 33,000  Climbing FlightAware
05:07 52.5256 -7.1544 111° Southeast 508 585 31,500 -2,460 Descending FlightAware UK
05:07 52.5098 -7.0880 111° Southeast 512 589 31,500 3,420 Level FlightAware UK
05:07 52.5040 -7.0700 111° Southeast 520 598 33,000  Climbing FlightAware
05:08 52.4886 -6.9998 111° Southeast 508 585 31,500 -2,700 Descending FlightAware UK
05:08 52.4727 -6.9342 112° Southeast 504 580 31,500 3,720 Level FlightAware UK
05:08 52.4690 -6.9210 112° Southeast 517 595 33,000  Climbing FlightAware
05:08 52.4462 -6.8253 112° Southeast 500 575 31,500 120 Descending FlightAware UK
05:09 52.4360 -6.7860 112° Southeast 519 597 33,100  Climbing FlightAware
05:09 52.4039 -6.6507 112° Southeast 504 580 31,500  Descending FlightAware UK
05:09 52.3940 -6.6110 112° Southeast 520 598 33,100  Climbing FlightAware
05:10 52.3665 -6.4976 112° Southeast 502 578 31,500 -180 Descending FlightAware UK
05:10 52.3640 -6.4900 112° Southeast 519 597 33,000  Climbing FlightAware
05:10 52.3339 -6.3669 112° Southeast 504 580 31,500 120 Descending FlightAware UK
05:11 52.3170 -6.3020 112° Southeast 519 597 33,100  Climbing FlightAware
05:11 52.3013 -6.2362 112° Southeast 506 582 31,500  Descending FlightAware UK
05:11 52.2820 -6.1600 112° Southeast 519 597 33,100  Climbing FlightAware
05:12 52.2632 -6.0842 112° Southeast 506 582 31,500 -2,700 Descending FlightAware UK
05:12 52.2469 -6.0192 112° Southeast 506 582 31,500 4,320 Level FlightAware UK
05:12 52.2460 -6.0160 112° Southeast 518 596 33,100  Climbing FlightAware
05:12 52.2248 -5.9320 112° Southeast 506 582 31,500  Descending FlightAware UK
05:13 52.2040 -5.8500 112° Southeast 517 595 33,100  Climbing FlightAware
05:13 52.1864 -5.7809 112° Southeast 506 582 31,500 -2,760 Descending FlightAware UK
05:13 52.1699 -5.7163 113° Southeast 506 582 31,500 4,140 Level FlightAware UK
05:14 52.1670 -5.7060 113° Southeast 516 594 33,100  Climbing FlightAware
05:14 52.1369 -5.5873 113° Southeast 504 580 31,500  Descending FlightAware UK
05:14 52.1260 -5.5480 113° Southeast 515 593 33,100  Climbing FlightAware
05:15 52.1092 -5.4794 113° Southeast 510 587 31,500 -2,880 Descending FlightAware UK
05:15 52.0928 -5.4159 113° Southeast 508 585 31,500 3,720 Level FlightAware UK
05:15 52.0890 -5.4020 113° Southeast 514 592 33,000  Climbing FlightAware
05:15 52.0704 -5.3299 113° Southeast 506 582 31,500 -2,520 Descending FlightAware UK
05:16 52.0539 -5.2661 113° Southeast 506 582 31,500 4,320 Level FlightAware UK
05:16 52.0530 -5.2610 113° Southeast 511 588 33,100  Climbing FlightAware
05:16 52.0317 -5.1812 113° Southeast 504 580 31,500 -2,580 Descending FlightAware UK
05:16 52.0151 -5.1177 113° Southeast 504 580 31,500 3,600 Level FlightAware UK
05:16 52.0100 -5.0980 113° Southeast 512 589 33,000  Climbing FlightAware
05:17 51.9890 -4.9869 113° Southeast 506 582 31,500  Descending FlightAware UK
05:17 51.9850 -4.9590 113° Southeast 509 586 33,000  Climbing FlightAware
05:18 51.9704 -4.8297 113° Southeast 504 580 31,500 120 Descending FlightAware UK
05:18 51.9660 -4.7900 113° Southeast 508 585 33,100  Climbing FlightAware
05:18 51.9574 -4.7177 113° Southeast 500 575 31,500  Descending FlightAware UK
05:18 51.9480 -4.6400 113° Southeast 508 585 33,100  Climbing FlightAware
05:19 51.9313 -4.4932 113° Southeast 504 580 31,500 -180 Descending FlightAware UK
05:19 51.9280 -4.4650 113° Southeast 510 587 33,000  Climbing FlightAware
05:19 51.9205 -4.4033 113° Southeast 504 580 31,500 -2,760 Descending FlightAware UK
05:20 51.9121 -4.3352 101° East 502 578 31,500 3,840 Level FlightAware UK
05:20 51.9090 -4.3190 101° East 509 586 33,100  Climbing FlightAware
05:20 51.8896 -4.2028 101° East 504 580 31,500 -180 Descending FlightAware UK
05:21 51.8820 -4.1540 101° East 509 586 33,000  Climbing FlightAware
05:21 51.8644 -4.0483 101° East 506 582 31,500 120 Descending FlightAware UK
05:21 51.8570 -4.0060 101° East 510 587 33,100  Climbing FlightAware
05:22 51.8467 -3.9377 101° East 506 582 31,500  Descending FlightAware UK
05:22 51.8287 -3.8293 101° East 510 587 33,100 1,500 Climbing FlightAware ADS-B
05:23 51.8100 -3.7120 104° East 510 587 33,100 -180 Level FlightAware
05:23 51.8032 -3.6712 105° East 510 587 33,000 -3,720 Descending FlightAware ADS-B
05:23 51.7930 -3.6056 105° East 504 580 31,500 120 Descending FlightAware UK
05:23 51.7840 -3.5500 105° East 510 587 33,100 2,880 Climbing FlightAware
05:24 51.7738 -3.4872 105° East 510 587 33,100 -3,360 Level FlightAware ADS-B
05:24 51.7648 -3.4289 105° East 504 580 31,500 -2,940 Descending FlightAware UK
05:24 51.7543 -3.3626 104° East 504 580 31,500  Level FlightAware UK
05:24 51.7437 -3.2957 104° East 506 582 31,500 2,280 Level FlightAware UK
05:25 51.7340 -3.2255 104° East 510 587 33,000 1,680 Climbing FlightAware ADS-B
05:25 51.7203 -3.0868 99° East 510 587 33,100 120 Climbing FlightAware ADS-B
05:26 51.7178 -3.0570 98° East 509 586 33,100 -3,600 Level FlightAware ADS-B
05:26 51.7109 -2.9810 98° East 504 580 31,500  Descending FlightAware UK
05:26 51.7079 -2.9446 98° East 509 586 33,100 2,340 Climbing FlightAware ADS-B
05:27 51.6983 -2.8321 98° East 509 586 33,100  Level FlightAware ADS-B
05:27 51.6868 -2.6969 98° East 509 586 33,100 -1,800 Level FlightAware ADS-B
05:27 51.6802 -2.6197 98° East 504 580 31,500 -240 Descending FlightAware UK
05:28 51.6763 -2.5771 98° East 508 585 33,000  Climbing FlightAware ADS-B
05:28 51.6704 -2.5081 98° East 504 580 31,500 180 Descending FlightAware UK
05:28 51.6663 -2.4615 98° East 508 585 33,100 2,220 Climbing FlightAware ADS-B
05:29 51.6563 -2.3491 98° East 508 585 33,100 -1,860 Level FlightAware ADS-B
05:29 51.6485 -2.2608 98° East 506 582 31,500  Descending FlightAware UK
05:29 51.6460 -2.2370 98° East 508 585 33,100  Climbing FlightAware ADS-B
05:29 51.6403 -2.1712 98° East 506 582 31,500  Descending FlightAware UK
05:30 51.6353 -2.1213 98° East 508 585 33,100  Climbing FlightAware ADS-B
05:30 51.6298 -2.0583 98° East 504 580 31,500  Descending FlightAware UK
05:30 51.6243 -2.0017 98° East 509 586 33,100 2,040 Climbing FlightAware ADS-B
05:31 51.6134 -1.8857 99° East 510 587 33,100 -1,920 Level FlightAware ADS-B
05:31 51.6067 -1.8111 99° East 502 578 31,500  Descending FlightAware UK
05:31 51.6028 -1.7738 99° East 510 587 33,100 2,160 Climbing FlightAware ADS-B
05:32 51.5919 -1.6579 99° East 510 587 33,000 -1,920 Descending FlightAware ADS-B
05:32 51.5851 -1.5867 99° East 504 580 31,500  Descending FlightAware UK
05:32 51.5808 -1.5418 99° East 510 587 33,000 2,100 Climbing FlightAware ADS-B
05:33 51.5698 -1.4300 99° East 509 586 33,000 -1,920 Level FlightAware ADS-B
05:33 51.5634 -1.3618 99° East 502 578 31,500 180 Descending FlightAware UK
05:33 51.5588 -1.3181 99° East 509 586 33,100 2,160 Climbing FlightAware ADS-B
05:34 51.5472 -1.2023 99° East 509 586 33,100 -2,040 Level FlightAware ADS-B
05:34 51.5411 -1.1374 99° East 504 580 31,500  Descending FlightAware UK
05:34 51.5350 -1.0794 99° East 509 586 33,100  Climbing FlightAware ADS-B
05:35 51.5274 -1.0032 99° East 502 578 31,500 -240 Descending FlightAware UK
05:35 51.5234 -0.9641 99° East 509 586 33,000 2,160 Climbing FlightAware ADS-B
05:35 51.5119 -0.8526 99° East 509 586 33,000 60 Level FlightAware ADS-B
05:36 51.5002 -0.7407 99° East 510 587 33,100 120 Climbing FlightAware ADS-B
05:36 51.4929 -0.6660 99° East 511 588 33,100  Level FlightAware ADS-B
05:37 51.4840 -0.5493 97° East 512 589 33,100 -120 Level FlightAware ADS-B
05:37 51.4757 -0.4285 96° East 513 590 33,000  Descending FlightAware ADS-B
05:38 51.4676 -0.3117 96° East 513 590 33,100 60 Climbing FlightAware ADS-B
05:38 51.4587 -0.1871 96° East 513 590 33,100  Level FlightAware ADS-B
05:39 51.4501 -0.0623 96° East 514 592 33,100  Level FlightAware ADS-B
05:39 51.4423 0.0547 96° East 515 593 33,100 -1,920 Level FlightAware ADS-B
05:40 51.4373 0.1270 96° East 502 578 31,500  Descending FlightAware UK
05:40 51.4341 0.1682 96° East 515 593 33,100  Climbing FlightAware ADS-B
05:40 51.4276 0.2643 96° East 504 580 31,500  Descending FlightAware UK
05:40 51.4254 0.2969 96° East 515 593 33,100 2,280 Climbing FlightAware ADS-B
05:41 51.4178 0.4181 96° East 513 590 33,100 -1,920 Level FlightAware ADS-B
05:41 51.4132 0.4921 96° East 498 573 31,500  Descending FlightAware UK
05:42 51.4102 0.5349 96° East 513 590 33,100  Climbing FlightAware ADS-B
05:42 51.4055 0.6052 96° East 504 580 31,500  Descending FlightAware UK
05:42 51.4022 0.6596 96° East 512 589 33,100 1,860 Climbing FlightAware ADS-B
05:43 51.3930 0.7828 97° East 507 583 33,000 -1,920 Descending FlightAware ADS-B
05:43 51.3856 0.8515 97° East 498 573 31,500 120 Descending FlightAware UK
05:43 51.3782 0.9076 97° East 504 580 33,100  Climbing FlightAware ADS-B
05:44 51.3681 0.9830 97° East 502 578 31,500  Descending FlightAware UK
05:44 51.3589 1.0409 97° East 499 574 33,100  Climbing FlightAware ADS-B
05:44 51.3484 1.1125 97° East 500 575 31,500  Descending FlightAware UK
05:44 51.3408 1.1584 97° East 495 570 33,100  Climbing FlightAware ADS-B
05:45 51.3252 1.2611 97° East 496 571 31,500 -1,860 Descending FlightAware UK
05:45 51.3116 1.3454 104° East 496 571 31,500 2,520 Level FlightAware UK
05:45 51.3060 1.3840 104° East 490 564 33,100  Climbing FlightAware
05:46 51.2913 1.4715 104° East 490 564 31,500 -2,400 Descending FlightAware UK
05:46 51.2812 1.5352 104° East 488 562 31,500 5,280 Level FlightAware UK
05:46 51.2820 1.5270 104° East 492 566 33,100  Climbing FlightAware
05:46 51.2711 1.5983 104° East 488 562 31,500  Descending FlightAware UK
05:47 51.2490 1.6800 104° East 485 558 33,100 1,860 Climbing FlightAware
05:47 51.2296 1.7522 113° Southeast 485 558 33,000 -2,520 Descending FlightAware ADS-B
05:48 51.2132 1.8162 113° Southeast 500 575 31,500 120 Descending FlightAware UK
05:48 51.1873 1.9084 113° Southeast 482 555 33,100 2,280 Climbing FlightAware ADS-B
05:48 51.1728 1.9470 121° Southeast 468 539 33,100 -120 Level FlightAware ADS-B
05:49 51.1215 2.0647 125° Southeast 462 532 33,000 -1,620 Descending FlightAware ADS-B
05:49 51.0990 2.1165 125° Southeast 494 568 31,500 180 Descending FlightAware UK
05:49 51.0836 2.1542 125° Southeast 461 531 33,100 1,800 Climbing FlightAware ADS-B
05:50 51.0304 2.2813 124° Southeast 461 531 33,300 -480 Climbing FlightAware ADS-B
05:51 50.9994 2.3800 124° Southeast 500 575 32,500 1,320 Descending FlightAware UK
05:51 50.9850 2.4290 124° Southeast 476 548 34,400 4,020 Climbing FlightAware
05:51 50.9684 2.4857 115° Southeast 477 549 34,800 840 Climbing FlightAware ADS-B
05:52 50.9387 2.5866 115° Southeast 475 547 35,100 120 Climbing FlightAware ADS-B
05:52 50.9110 2.6810 115° Southeast 472 543 35,000 -1,620 Descending FlightAware
05:53 50.8891 2.7829 115° Southeast 494 568 33,500  Descending FlightAware UK
05:53 50.8785 2.8612 115° Southeast 475 547 35,000 1,500 Climbing FlightAware ADS-B
05:54 50.8690 2.9830 97° East 493 567 35,100 60 Climbing FlightAware
05:55 50.8590 3.1160 97° East 494 568 35,100 -1,740 Level FlightAware
05:55 50.8517 3.2119 97° East 488 562 33,500  Descending FlightAware UK
05:55 50.8470 3.2710 97° East 496 571 35,100 1,380 Climbing FlightAware
05:56 50.8350 3.4330 97° East 498 573 35,100  Level FlightAware
05:57 50.8230 3.5810 97° East 500 575 35,100 -120 Level FlightAware
05:57 50.8070 3.7320 99° East 493 567 35,000 -1,500 Descending FlightAware
05:58 50.7949 3.8380 99° East 500 575 33,500  Descending FlightAware UK
05:58 50.7880 3.8910 99° East 491 565 35,000 1,500 Climbing FlightAware
05:59 50.7690 4.0520 101° East 486 559 35,100 60 Climbing FlightAware
05:59 50.7520 4.1870 101° East 483 556 35,100 -1,560 Level FlightAware
06:00 50.7418 4.2769 101° East 486 559 33,500  Descending FlightAware UK
06:00 50.7350 4.3290 101° East 482 555 35,100 1,380 Climbing FlightAware
06:01 50.7170 4.4740 101° East 482 555 35,000  Descending FlightAware
06:02 50.6990 4.6190 101° East 485 558 35,100 60 Climbing FlightAware
06:02 50.6810 4.7640 101° East 485 558 35,100  Level FlightAware
06:03 50.6610 4.9090 102° East 480 552 35,100  Level FlightAware
06:04 50.6240 5.0410 114° Southeast 469 540 35,100  Level FlightAware
06:05 50.5500 5.2030 126° Southeast 462 532 35,100  Level FlightAware
06:05 50.5010 5.3060 127° Southeast 464 534 35,100  Level FlightAware
06:06 50.4470 5.4180 127° Southeast 465 535 35,100 -120 Level FlightAware
06:07 50.3880 5.5430 126° Southeast 468 539 35,000  Descending FlightAware
06:07 50.3400 5.6520 125° Southeast 470 541 35,100 60 Climbing FlightAware
06:08 50.2890 5.7670 125° Southeast 471 542 35,100  Level FlightAware
06:09 50.2340 5.8920 124° Southeast 471 542 35,100  Level FlightAware
06:09 50.1840 6.0010 126° Southeast 473 544 35,100 -120 Level FlightAware
06:10 50.1330 6.1120 126° Southeast 474 545 35,000  Descending FlightAware
06:11 50.0870 6.2150 125° Southeast 474 545 35,100 60 Climbing FlightAware
06:12 50.0220 6.3570 125° Southeast 475 547 35,100  Level FlightAware
06:12 49.9720 6.4650 126° Southeast 475 547 35,100  Level FlightAware
06:13 49.9280 6.5620 125° Southeast 476 548 35,100  Level FlightAware
06:14 49.8610 6.7070 126° Southeast 478 550 35,100  Level FlightAware
06:14 49.8100 6.8180 125° Southeast 473 544 35,100 -120 Level FlightAware
06:15 49.7530 6.9370 127° Southeast 478 550 35,000  Descending FlightAware
06:16 49.7000 7.0500 126° Southeast 478 550 35,100 60 Climbing FlightAware
06:17 49.6410 7.1770 126° Southeast 479 551 35,100  Level FlightAware
06:17 49.5890 7.2870 126° Southeast 478 550 35,100  Level FlightAware
06:18 49.5420 7.3860 126° Southeast 476 548 35,100  Level FlightAware
06:19 49.4840 7.4930 130° Southeast 475 547 35,100  Level FlightAware
06:19 49.4240 7.5950 132° Southeast 474 545 35,100  Level FlightAware
06:20 49.3530 7.7130 133° Southeast 473 544 35,100  Level FlightAware
06:21 49.2830 7.8260 133° Southeast 473 544 35,100  Level FlightAware
06:21 49.2360 7.9010 134° Southeast 474 545 35,100  Level FlightAware
06:22 49.1550 8.0340 133° Southeast 476 548 35,100 -120 Level FlightAware
06:23 49.0960 8.1290 133° Southeast 472 543 35,000  Descending FlightAware
06:25 48.9698 8.4536 121° Southeast  Level Estimated
06:25 48.8890 8.4650 121° Southeast 479 551 35,100  Level FlightAware
06:28 48.7124 8.9140 121° Southeast  Level Estimated
06:28 48.5880 8.9340 121° Southeast 478 550 35,000  Level FlightAware
06:29 48.5200 9.0230 139° Southeast 477 549 35,000 60 Level FlightAware
06:30 48.4510 9.1040 142° Southeast 471 542 35,100 60 Climbing FlightAware
06:30 48.3720 9.1960 142° Southeast 471 542 35,100  Level FlightAware
06:31 48.2970 9.2850 142° Southeast 471 542 35,100 -120 Level FlightAware
06:32 48.2290 9.3640 142° Southeast 470 541 35,000  Descending FlightAware
06:32 48.1640 9.4420 141° Southeast 470 541 35,100  Climbing FlightAware
06:33 48.0710 9.5490 142° Southeast 477 549 35,000 -120 Descending FlightAware
06:34 48.0020 9.6290 142° Southeast 479 551 35,000 60 Level FlightAware
06:35 47.9440 9.6980 141° Southeast 480 552 35,100  Climbing FlightAware
06:35 47.8610 9.7940 142° Southeast 477 549 35,000  Descending FlightAware
06:36 47.7990 9.8650 142° Southeast 485 558 35,100 60 Climbing FlightAware
06:37 47.7250 9.9490 143° Southeast 486 559 35,100 -120 Level FlightAware
06:37 47.6610 10.0230 142° Southeast 487 560 35,000 -120 Descending FlightAware
06:38 47.5890 10.1060 142° Southeast 486 559 35,000 60 Level FlightAware
06:39 47.5170 10.1870 143° Southeast 487 560 35,100  Climbing FlightAware
06:39 47.4240 10.2930 142° Southeast 487 560 35,000  Descending FlightAware
06:40 47.3520 10.3740 143° Southeast 487 560 35,100  Climbing FlightAware
06:41 47.2750 10.4600 143° Southeast 486 559 35,000 -120 Descending FlightAware
06:41 47.2060 10.5460 140° Southeast 492 566 35,000  Level FlightAware
06:42 47.1360 10.6550 133° Southeast 493 567 35,000  Level FlightAware
06:43 47.0760 10.7460 134° Southeast 487 560 35,000  Level FlightAware
06:44 47.0060 10.8500 135° Southeast 495 570 35,000  Level FlightAware
06:44 46.9370 10.9560 134° Southeast 493 567 35,000  Level FlightAware
06:45 46.8730 11.0530 134° Southeast 493 567 35,000 60 Level FlightAware
06:46 46.8100 11.1500 133° Southeast 495 570 35,100 60 Climbing FlightAware
06:46 46.7340 11.2650 134° Southeast 496 571 35,100  Level FlightAware
06:47 46.6690 11.3620 134° Southeast 498 573 35,100 -120 Level FlightAware
06:48 46.5970 11.4700 134° Southeast 505 581 35,000 -120 Descending FlightAware
06:48 46.5320 11.5680 134° Southeast 509 586 35,000 60 Level FlightAware
06:49 46.4740 11.6530 135° Southeast 510 587 35,100  Climbing FlightAware
06:50 46.3920 11.7780 134° Southeast 511 588 35,000  Descending FlightAware
06:50 46.3360 11.8590 135° Southeast 511 588 35,100 60 Climbing FlightAware
06:51 46.2510 11.9860 134° Southeast 507 583 35,100 -120 Level FlightAware
06:52 46.1850 12.0840 134° Southeast 509 586 35,000  Descending FlightAware
06:53 46.1100 12.1920 135° Southeast 510 587 35,100  Climbing FlightAware
06:53 46.0410 12.2920 135° Southeast 510 587 35,000 -120 Descending FlightAware
06:54 45.9740 12.3900 135° Southeast 512 589 35,000  Level FlightAware
06:55 45.8990 12.4980 135° Southeast 515 593 35,000 60 Level FlightAware
06:56 45.8060 12.6340 134° Southeast 520 598 35,100 60 Climbing FlightAware
06:56 45.7370 12.7370 134° Southeast 528 608 35,100 -120 Level FlightAware
06:57 45.6620 12.8490 134° Southeast 531 611 35,000 -60 Descending FlightAware
06:58 45.5700 12.9860 134° Southeast 533 613 35,000  Level FlightAware
06:59 45.5100 13.0770 133° Southeast 532 612 35,000  Level FlightAware
06:59 45.4250 13.2090 133° Southeast 539 620 35,000 60 Level FlightAware
07:00 45.3800 13.2900 128° Southeast 537 618 35,100 60 Climbing FlightAware
07:01 45.2970 13.4470 127° Southeast 543 625 35,100  Level FlightAware
07:02 45.2360 13.5650 126° Southeast 545 627 35,100 -120 Level FlightAware
07:02 45.1770 13.6760 127° Southeast 545 627 35,000  Descending FlightAware
07:03 45.1120 13.7990 127° Southeast 545 627 35,100 60 Climbing FlightAware
07:03 45.0630 13.8940 126° Southeast 541 623 35,100  Level FlightAware
07:04 44.9800 14.0470 127° Southeast 541 623 35,100  Level FlightAware
07:05 44.9060 14.1870 127° Southeast 542 624 35,100 -120 Level FlightAware
07:06 44.8470 14.2980 127° Southeast 543 625 35,000 -120 Descending FlightAware
07:07 44.7760 14.4290 127° Southeast 543 625 35,000 60 Level FlightAware
07:07 44.7410 14.4940 127° Southeast 548 631 35,100  Climbing FlightAware
07:08 44.6510 14.6610 127° Southeast 541 623 35,000  Descending FlightAware
07:09 44.5950 14.7620 128° Southeast 542 624 35,100 60 Climbing FlightAware
07:09 44.5230 14.8940 127° Southeast 543 625 35,100  Level FlightAware
07:10 44.4440 15.0380 128° Southeast 549 632 35,100  Level FlightAware
07:11 44.3880 15.1390 128° Southeast 549 632 35,100  Level FlightAware
07:12 44.3210 15.2590 128° Southeast 549 632 35,100 -120 Level FlightAware
07:12 44.2530 15.3820 128° Southeast 549 632 35,000  Descending FlightAware
07:13 44.1870 15.5000 128° Southeast 548 631 35,100  Climbing FlightAware
07:14 44.1290 15.6020 128° Southeast 548 631 35,000  Descending FlightAware
07:14 44.0540 15.7350 128° Southeast 546 628 35,100 60 Climbing FlightAware
07:15 43.9930 15.8430 128° Southeast 545 627 35,100  Level FlightAware
07:16 43.9230 15.9660 128° Southeast 546 628 35,100 -120 Level FlightAware
07:16 43.8590 16.0790 128° Southeast 546 628 35,000  Descending FlightAware
07:17 43.7960 16.1880 129° Southeast 546 628 35,100  Climbing FlightAware
07:18 43.7250 16.3110 129° Southeast 546 628 35,000  Descending FlightAware
07:19 43.6620 16.4200 129° Southeast 547 629 35,100 60 Climbing FlightAware
07:19 43.5930 16.5400 128° Southeast 547 629 35,100  Level FlightAware
07:20 43.5290 16.6520 128° Southeast 542 624 35,100 -120 Level FlightAware
07:21 43.4650 16.7610 129° Southeast 544 626 35,000  Descending FlightAware
07:21 43.3940 16.8830 129° Southeast 544 626 35,100 60 Climbing FlightAware
07:22 43.3290 16.9910 130° Southeast 543 625 35,100  Level FlightAware
07:23 43.2580 17.1100 129° Southeast 542 624 35,100  Level FlightAware
07:23 43.1930 17.2200 129° Southeast 541 623 35,100 -120 Level FlightAware
07:24 43.1300 17.3270 129° Southeast 540 621 35,000 -120 Descending FlightAware
07:25 43.0580 17.4470 129° Southeast 540 621 35,000 60 Level FlightAware
07:26 42.9950 17.5510 130° Southeast 540 621 35,100  Climbing FlightAware
07:26 42.9250 17.6680 129° Southeast 539 620 35,000 -120 Descending FlightAware
07:27 42.8590 17.7790 129° Southeast 541 623 35,000 60 Level FlightAware
07:28 42.7930 17.8850 130° Southeast 541 623 35,100  Climbing FlightAware
07:28 42.7230 18.0020 129° Southeast 542 624 35,000  Descending FlightAware
07:29 42.6380 18.1400 130° Southeast 542 624 35,100  Climbing FlightAware
07:31 42.4390 18.4310 133° Southeast 544 626 35,000  Descending FlightAware
07:32 42.3690 18.5240 136° Southeast 545 627 35,100  Climbing FlightAware
07:33 42.2900 18.6300 135° Southeast 547 629 35,000  Descending FlightAware
07:33 42.2180 18.7290 134° Southeast 548 631 35,100 60 Climbing FlightAware
07:34 42.1360 18.8370 136° Southeast 548 631 35,100  Level FlightAware
07:35 42.0640 18.9330 135° Southeast 548 631 35,100  Level FlightAware
07:35 41.9900 19.0310 135° Southeast 548 631 35,100  Level FlightAware
07:36 41.9000 19.1500 135° Southeast 550 633 35,100  Level FlightAware
07:37 41.8330 19.2390 135° Southeast 550 633 35,100  Level FlightAware
07:37 41.7530 19.3370 138° Southeast 549 632 35,100  Level FlightAware
07:38 41.6690 19.4340 139° Southeast 549 632 35,100  Level FlightAware
07:39 41.5990 19.5120 140° Southeast 549 632 35,100 -120 Level FlightAware
07:40 41.5170 19.6040 140° Southeast 550 633 35,000 -120 Descending FlightAware
07:40 41.4250 19.7100 139° Southeast 552 635 35,000  Level FlightAware
07:41 41.3500 19.8040 137° Southeast 554 638 35,000 60 Level FlightAware
07:42 41.2700 19.9140 134° Southeast 555 639 35,100 60 Climbing FlightAware
07:42 41.1980 20.0110 135° Southeast 555 639 35,100 -120 Level FlightAware
07:43 41.1260 20.1080 135° Southeast 554 638 35,000  Descending FlightAware
07:44 41.0430 20.2190 135° Southeast 554 638 35,100  Climbing FlightAware
07:44 40.9720 20.3120 135° Southeast 553 636 35,000  Descending FlightAware
07:45 40.8920 20.4180 135° Southeast 553 636 35,100 60 Climbing FlightAware
07:46 40.8190 20.5130 135° Southeast 553 636 35,100 -120 Level FlightAware
07:47 40.7470 20.6080 135° Southeast 553 636 35,000  Descending FlightAware
07:47 40.6850 20.6890 135° Southeast 553 636 35,100 60 Climbing FlightAware
07:48 40.6050 20.7940 135° Southeast 553 636 35,100  Level FlightAware
07:49 40.5430 20.8740 136° Southeast 553 636 35,100 -120 Level FlightAware
07:49 40.4370 21.0080 136° Southeast 553 636 35,000  Descending FlightAware
07:50 40.3550 21.1060 138° Southeast 548 631 35,100 60 Climbing FlightAware
07:51 40.2770 21.1990 138° Southeast 549 632 35,100  Level FlightAware
07:51 40.2000 21.2920 137° Southeast 550 633 35,100 -120 Level FlightAware
07:52 40.1150 21.3940 137° Southeast 550 633 35,000  Descending FlightAware
07:53 40.0400 21.4830 138° Southeast 550 633 35,100  Climbing FlightAware
07:54 39.9540 21.5850 138° Southeast 551 634 35,000  Descending FlightAware
07:54 39.8780 21.6750 138° Southeast 552 635 35,100 60 Climbing FlightAware
07:55 39.7980 21.7700 138° Southeast 552 635 35,100  Level FlightAware
07:56 39.7220 21.8580 138° Southeast 552 635 35,100  Level FlightAware
07:56 39.6380 21.9570 138° Southeast 552 635 35,100  Level FlightAware
07:57 39.5590 22.0510 137° Southeast 558 642 35,100  Level FlightAware
07:58 39.4730 22.1490 139° Southeast 559 643 35,100  Level FlightAware
07:58 39.3950 22.2410 138° Southeast 558 642 35,100  Level FlightAware
07:59 39.3090 22.3390 139° Southeast 558 642 35,100 -120 Level FlightAware
08:00 39.2340 22.4260 138° Southeast 558 642 35,000  Descending FlightAware
08:01 39.1550 22.5190 138° Southeast 558 642 35,100 60 Climbing FlightAware
08:01 39.0710 22.6140 139° Southeast 560 644 35,100  Level FlightAware
08:02 38.9910 22.7050 139° Southeast 561 646 35,100  Level FlightAware
08:03 38.9160 22.7910 138° Southeast 561 646 35,100 -120 Level FlightAware
08:03 38.8240 22.8950 139° Southeast 561 646 35,000  Descending FlightAware
08:04 38.7460 22.9830 139° Southeast 561 646 35,100 60 Climbing FlightAware
08:05 38.6590 23.0820 138° Southeast 560 644 35,100 -120 Level FlightAware
08:05 38.5820 23.1690 139° Southeast 559 643 35,000  Descending FlightAware
08:06 38.4930 23.2680 139° Southeast 559 643 35,100 60 Climbing FlightAware
08:07 38.4160 23.3550 138° Southeast 559 643 35,100  Level FlightAware
08:08 38.3380 23.4410 139° Southeast 560 644 35,100  Level FlightAware
08:08 38.2500 23.5390 139° Southeast 560 644 35,100  Level FlightAware
08:09 38.1730 23.6230 139° Southeast 560 644 35,100  Level FlightAware
08:10 38.0830 23.7230 139° Southeast 560 644 35,100  Level FlightAware
08:10 38.0040 23.8110 139° Southeast 560 644 35,100  Level FlightAware
08:11 37.9260 23.8950 140° Southeast 560 644 35,100 -120 Level FlightAware
08:12 37.8400 23.9900 139° Southeast 560 644 35,000  Descending FlightAware
08:12 37.7620 24.0750 139° Southeast 560 644 35,100  Climbing FlightAware
08:13 37.6820 24.1640 139° Southeast 559 643 35,000 -120 Descending FlightAware
08:14 37.6120 24.2780 128° Southeast 561 646 35,000 60 Level FlightAware
08:15 37.5550 24.3910 122° Southeast 559 643 35,100 60 Climbing FlightAware
08:15 37.4960 24.5170 121° Southeast 560 644 35,100  Level FlightAware
08:16 37.4440 24.6260 121° Southeast 561 646 35,100  Level FlightAware
08:17 37.3880 24.7400 122° Southeast 561 646 35,100  Level FlightAware
08:17 37.3270 24.8620 122° Southeast 561 646 35,100  Level FlightAware
08:18 37.2710 24.9720 123° Southeast 561 646 35,100  Level FlightAware
08:19 37.2070 25.1020 122° Southeast 561 646 35,100  Level FlightAware
08:19 37.1520 25.2120 122° Southeast 561 646 35,100  Level FlightAware
08:20 37.0930 25.3300 122° Southeast 562 647 35,100 -120 Level FlightAware
08:21 37.0360 25.4400 123° Southeast 562 647 35,000 -120 Descending FlightAware
08:22 36.9810 25.5500 122° Southeast 564 649 35,000  Level FlightAware
08:22 36.9170 25.6770 122° Southeast 564 649 35,000  Level FlightAware
08:23 36.8740 25.7630 122° Southeast 564 649 35,000 60 Level FlightAware
08:23 36.8200 25.8700 122° Southeast 564 649 35,100 60 Climbing FlightAware
08:24 36.7640 25.9770 123° Southeast 564 649 35,100  Level FlightAware
08:25 36.7000 26.1030 122° Southeast 565 650 35,100  Level FlightAware
08:26 36.6450 26.2130 122° Southeast 564 649 35,100  Level FlightAware
08:26 36.5820 26.3330 123° Southeast 566 651 35,100 -120 Level FlightAware
08:27 36.5250 26.4430 123° Southeast 566 651 35,000  Descending FlightAware
08:28 36.4690 26.5500 123° Southeast 567 652 35,100 60 Climbing FlightAware
08:28 36.4030 26.6750 123° Southeast 567 652 35,100 -120 Level FlightAware
08:29 36.3480 26.7820 123° Southeast 567 652 35,000  Descending FlightAware
08:30 36.3010 26.8720 123° Southeast 567 652 35,100 60 Climbing FlightAware
08:30 36.2510 26.9680 123° Southeast 568 654 35,100  Level FlightAware
08:31 36.1580 27.1450 123° Southeast 570 656 35,100  Level FlightAware
08:32 36.0990 27.2570 123° Southeast 570 656 35,100  Level FlightAware
08:33 36.0420 27.3640 123° Southeast 571 657 35,100  Level FlightAware
08:33 35.9850 27.4700 124° Southeast 572 658 35,100  Level FlightAware
08:34 35.9230 27.5870 123° Southeast 572 658 35,100  Level FlightAware
08:35 35.8510 27.7180 124° Southeast 573 659 35,100  Level FlightAware
08:36 35.7980 27.8210 122° Southeast 573 659 35,100  Level FlightAware
08:36 35.7490 27.9140 123° Southeast 573 659 35,100 -420 Level FlightAware
08:37 35.6750 28.0450 125° Southeast 564 649 34,600 -1,020 Descending FlightAware
08:38 35.6110 28.1630 124° Southeast 553 636 33,700 -1,140 Descending FlightAware
08:38 35.5520 28.2690 124° Southeast 543 625 33,000 -1,440 Descending FlightAware
08:39 35.4810 28.3990 124° Southeast 519 597 31,700 -1,380 Descending FlightAware
08:40 35.4240 28.5040 124° Southeast 500 575 31,000 -540 Descending FlightAware
08:40 35.3830 28.5780 124° Southeast 500 575 31,000  Level FlightAware
08:41 35.3240 28.6860 124° Southeast 31,000  Level FlightAware
08:42 35.2580 28.8060 124° Southeast 530 610 31,000  Level FlightAware
08:43 35.2030 28.9040 124° Southeast 532 612 31,000  Level FlightAware
08:43 35.1420 29.0120 125° Southeast 535 616 31,000 60 Level FlightAware
08:44 35.0810 29.1210 124° Southeast 528 608 31,100  Climbing FlightAware
08:45 35.0240 29.2230 124° Southeast 528 608 31,000 -120 Descending FlightAware
08:45 34.9690 29.3220 124° Southeast 526 605 31,000  Level FlightAware
08:46 34.9010 29.4460 124° Southeast 526 605 31,000  Level FlightAware
08:48 34.7770 29.6600 125° Southeast 521 600 31,000  Level FlightAware
08:49 34.6570 29.8750 124° Southeast 518 596 31,000  Level FlightAware
08:50 34.6110 29.9650 122° Southeast 523 602 31,000 60 Level FlightAware
08:50 34.5580 30.0720 121° Southeast 523 602 31,100  Climbing FlightAware
08:51 34.5040 30.1900 119° Southeast 523 602 31,000 -120 Descending FlightAware
08:52 34.4560 30.2900 120° Southeast 518 596 31,000  Level FlightAware
08:53 34.4020 30.4030 120° Southeast 519 597 31,000  Level FlightAware
08:53 34.3530 30.5040 120° Southeast 519 597 31,000  Level FlightAware
08:54 34.2980 30.6190 120° Southeast 518 596 31,000  Level FlightAware
08:55 34.2480 30.7210 121° Southeast 516 594 31,000  Level FlightAware
08:55 34.2010 30.8150 121° Southeast 513 590 31,000  Level FlightAware
08:56 34.1450 30.9290 121° Southeast 514 592 31,000  Level FlightAware
08:57 34.1030 31.0150 121° Southeast 514 592 31,000  Level FlightAware
08:58 34.0410 31.1410 121° Southeast 513 590 31,000  Level FlightAware
08:58 33.9920 31.2390 121° Southeast 513 590 31,000  Level FlightAware
08:59 33.9430 31.3400 120° Southeast 508 585 31,000  Level FlightAware
09:00 33.8870 31.4520 121° Southeast 510 587 31,000  Level FlightAware
09:00 33.8390 31.5470 121° Southeast 510 587 31,000  Level FlightAware
09:01 33.7900 31.6440 121° Southeast 510 587 31,000  Level FlightAware
09:02 33.6910 31.8430 121° Southeast 506 582 31,000  Level FlightAware
09:04 33.5870 32.0480 121° Southeast 503 579 31,000  Level FlightAware
09:05 33.5080 32.2050 121° Southeast 506 582 31,000  Level FlightAware
09:06 33.4520 32.3130 122° Southeast 506 582 31,000  Level FlightAware
09:06 33.3970 32.4220 121° Southeast 506 582 31,000  Level FlightAware
09:07 33.3480 32.5180 121° Southeast 505 581 31,000  Level FlightAware
09:08 33.2900 32.6280 122° Southeast 504 580 31,000  Level FlightAware
09:08 33.2400 32.7270 121° Southeast 504 580 31,000  Level FlightAware
09:09 33.1850 32.8320 122° Southeast 508 585 31,000 -180 Level FlightAware
09:10 33.1340 32.9320 121° Southeast 506 582 30,800 -600 Descending FlightAware
09:11 33.0690 33.0550 122° Southeast 484 557 30,100 -840 Descending FlightAware
09:11 33.0240 33.1420 122° Southeast 471 542 29,500 -1,440 Descending FlightAware
09:12 32.9710 33.2440 122° Southeast 457 526 28,100 -2,100 Descending FlightAware
09:13 32.9260 33.3310 122° Southeast 450 518 26,600 -2,280 Descending FlightAware
09:14 32.8750 33.4260 123° Southeast 442 509 24,900 -2,220 Descending FlightAware
09:14 32.8330 33.5080 121° Southeast 433 498 23,500 -2,100 Descending FlightAware
09:15 32.7900 33.5880 123° Southeast 424 488 22,100 -1,980 Descending FlightAware
09:16 32.7450 33.6740 122° Southeast 414 476 20,700 -1,920 Descending FlightAware
09:16 32.7050 33.7490 122° Southeast 404 465 19,400 -2,160 Descending FlightAware
09:17 32.6590 33.8350 122° Southeast 399 459 17,700 -2,280 Descending FlightAware
09:18 32.6190 33.9090 123° Southeast 394 453 16,200 -2,220 Descending FlightAware
09:19 32.5750 33.9920 122° Southeast 387 445 14,600 -2,160 Descending FlightAware
09:19 32.5370 34.0640 122° Southeast 382 440 13,200 -2,100 Descending FlightAware
09:20 32.5000 34.1320 123° Southeast 376 433 11,800 -1,860 Descending FlightAware
09:21 32.4520 34.1990 130° Southeast 363 418 10,600 -1,140 Descending FlightAware
09:21 32.4040 34.2570 134° Southeast 328 377 10,200 -480 Descending FlightAware
09:22 32.3640 34.3030 136° Southeast 293 337 10,000 -900 Descending FlightAware
09:23 32.3110 34.3650 135° Southeast 308 354 8,800 -900 Descending FlightAware
09:23 32.2860 34.3950 135° Southeast 308 354 8,800 -1,140 Level FlightAware
09:24 32.2620 34.4350 125° Southeast 281 323 7,700 -1,740 Descending FlightAware
09:24 32.2490 34.4570 125° Southeast 279 321 7,500 -600 Descending FlightAware
09:25 32.2310 34.4860 126° Southeast 280 322 7,300 -600 Descending FlightAware
09:25 32.2090 34.5260 123° Southeast 275 316 7,000 -600 Descending FlightAware
09:25 32.1940 34.5510 125° Southeast 275 316 6,800 -600 Descending FlightAware
09:26 32.1710 34.5900 125° Southeast 272 313 6,500 -660 Descending FlightAware
09:26 32.1500 34.6240 126° Southeast 272 313 6,200 -600 Descending FlightAware
09:27 32.1300 34.6590 124° Southeast 272 313 6,000 -480 Descending FlightAware
09:27 32.1220 34.6720 126° Southeast 268 308 5,900 -780 Descending FlightAware
09:28 32.1010 34.7100 123° Southeast 256 295 5,500 -780 Descending FlightAware
09:28 32.0850 34.7360 126° Southeast 241 277 5,200 -480 Descending FlightAware
09:28 32.0680 34.7640 126° Southeast 233 268 5,100 -300 Descending FlightAware
09:29 32.0440 34.7940 133° Southeast 233 268 4,900 -420 Descending FlightAware
09:29 32.0340 34.8050 137° Southeast 231 266 4,800 -480 Descending FlightAware
09:30 32.0120 34.8310 135° Southeast 228 262 4,600 -900 Descending FlightAware
09:30 31.9880 34.8570 137° Southeast 232 267 4,000 -1,320 Descending FlightAware
09:31 31.9740 34.8790 127° Southeast 233 268 3,400 -1,320 Descending FlightAware
09:31 31.9780 34.9160 83° East 209 241 2,800 -720 Descending FlightAware
09:32 31.9870 34.9550 75° East 199 229 2,600 -300 Descending FlightAware
09:34 32.0095 34.8769 289° West  Level Estimated
09:35 32.0095 34.8769 270° West  Level Estimated